createdAt,value
2022-11-20T00:00:20.265Z,5.20
2022-11-20T00:02:47.438Z,4.47
2022-11-20T00:05:14.659Z,5.45
2022-11-20T00:07:42.109Z,6.10
2022-11-20T00:10:09.567Z,4.72
2022-11-20T00:12:36.732Z,4.65
2022-11-20T00:15:04.572Z,6.65
2022-11-20T00:17:31.732Z,5.97
2022-11-20T00:19:58.909Z,5.75
2022-11-20T00:22:26.065Z,7.30
2022-11-20T00:24:53.234Z,4.63
2022-11-20T00:27:20.533Z,6.57
2022-11-20T00:29:47.765Z,4.78
2022-11-20T00:32:14.940Z,7.53
2022-11-20T00:34:42.118Z,4.72
2022-11-20T00:37:09.289Z,8.02
2022-11-20T00:39:36.461Z,7.43
2022-11-20T00:42:03.769Z,5.00
2022-11-20T00:44:30.955Z,5.28
2022-11-20T00:46:58.136Z,4.78
2022-11-20T00:49:25.297Z,6.40
2022-11-20T00:51:52.520Z,6.40
2022-11-20T00:54:19.710Z,6.05
2022-11-20T00:56:46.883Z,6.93
2022-11-20T00:59:14.150Z,5.10
2022-11-20T01:01:41.343Z,4.65
2022-11-20T01:04:08.530Z,4.75
2022-11-20T01:06:37.032Z,5.15
2022-11-20T01:09:10.294Z,3.92
2022-11-20T01:11:39.284Z,8.98
2022-11-20T01:14:08.636Z,6.47
2022-11-20T01:16:37.468Z,5.45
2022-11-20T01:19:06.548Z,7.63
2022-11-20T01:21:38.330Z,6.25
2022-11-20T01:24:06.714Z,9.70
2022-11-20T01:26:35.317Z,6.40
2022-11-20T01:29:02.672Z,5.45
2022-11-20T01:31:31.522Z,7.78
2022-11-20T01:34:03.762Z,5.90
2022-11-20T01:36:31.340Z,5.28
2022-11-20T01:39:00.517Z,4.32
2022-11-20T01:41:47.302Z,7.07
2022-11-20T01:44:16.054Z,7.13
2022-11-20T01:46:57.512Z,5.20
2022-11-20T01:49:35.797Z,6.72
2022-11-20T01:52:05.782Z,4.43
2022-11-20T01:54:37.441Z,5.32
2022-11-20T01:57:04.624Z,6.72
2022-11-20T01:59:31.802Z,5.25
2022-11-20T02:01:59.050Z,5.53
2022-11-20T02:04:26.227Z,7.38
2022-11-20T02:07:01.354Z,5.05
2022-11-20T02:09:28.828Z,6.03
2022-11-20T02:11:56.061Z,4.75
2022-11-20T02:14:23.270Z,7.30
2022-11-20T02:16:50.516Z,7.25
2022-11-20T02:19:38.555Z,5.47
2022-11-20T02:22:07.225Z,5.95
2022-11-20T02:24:34.397Z,5.03
2022-11-20T02:27:10.053Z,7.25
2022-11-20T02:29:53.092Z,5.90
2022-11-20T02:32:23.461Z,6.90
2022-11-20T02:34:50.642Z,5.80
2022-11-20T02:37:17.833Z,4.53
2022-11-20T02:39:46.332Z,5.93
2022-11-20T02:42:13.514Z,7.18
2022-11-20T02:44:40.698Z,8.88
2022-11-20T02:47:07.903Z,4.38
2022-11-20T02:49:35.093Z,4.57
2022-11-20T02:52:02.331Z,6.63
2022-11-20T02:54:29.545Z,4.95
2022-11-20T02:56:56.710Z,6.32
2022-11-20T02:59:24.007Z,6.38
2022-11-20T03:01:51.336Z,5.30
2022-11-20T03:04:18.521Z,6.78
2022-11-20T03:06:45.688Z,5.00
2022-11-20T03:09:13.276Z,6.07
2022-11-20T03:11:40.457Z,5.30
2022-11-20T03:14:07.614Z,5.82
2022-11-20T03:16:34.768Z,5.47
2022-11-20T03:19:01.917Z,5.13
2022-11-20T03:21:29.089Z,5.03
2022-11-20T03:23:56.483Z,6.70
2022-11-20T03:26:25.320Z,4.88
2022-11-20T03:28:54.050Z,5.75
2022-11-20T03:31:23.206Z,6.15
2022-11-20T03:33:50.436Z,5.70
2022-11-20T03:36:18.365Z,9.60
2022-11-20T03:38:45.569Z,5.25
2022-11-20T03:41:29.470Z,5.70
2022-11-20T03:43:58.460Z,7.20
2022-11-20T03:46:25.817Z,4.72
2022-11-20T03:48:53.042Z,5.47
2022-11-20T03:51:24.744Z,4.90
2022-11-20T03:53:53.509Z,7.05
2022-11-20T03:56:23.255Z,9.02
2022-11-20T03:58:50.429Z,5.80
2022-11-20T04:01:22.178Z,8.07
2022-11-20T04:03:49.568Z,5.18
2022-11-20T04:06:18.720Z,6.90
2022-11-20T04:08:51.019Z,4.55
2022-11-20T04:11:22.809Z,9.35
2022-11-20T04:13:55.100Z,5.60
2022-11-20T04:16:22.736Z,5.22
2022-11-20T04:18:57.439Z,7.07
2022-11-20T04:23:52.103Z,4.82
2022-11-20T04:26:19.414Z,5.50
2022-11-20T04:28:46.583Z,5.70
2022-11-20T04:31:15.745Z,5.03
2022-11-20T04:33:42.961Z,4.97
2022-11-20T04:36:16.749Z,5.25
2022-11-20T04:38:44.007Z,4.50
2022-11-20T04:41:15.825Z,6.00
2022-11-20T04:43:43.013Z,6.03
2022-11-20T04:46:10.190Z,8.02
2022-11-20T04:48:37.380Z,6.55
2022-11-20T04:51:05.258Z,9.70
2022-11-20T04:53:32.453Z,7.82
2022-11-20T04:56:07.265Z,6.10
2022-11-20T04:58:34.978Z,8.23
2022-11-20T05:01:19.186Z,7.63
2022-11-20T05:03:46.556Z,6.43
2022-11-20T05:06:15.597Z,8.98
2022-11-20T05:08:42.854Z,13.57
2022-11-20T05:11:14.876Z,6.95
2022-11-20T05:13:42.187Z,6.85
2022-11-20T05:16:11.249Z,6.72
2022-11-20T05:18:38.684Z,7.97
2022-11-20T05:21:06.091Z,8.18
2022-11-20T05:23:33.465Z,9.40
2022-11-20T05:26:00.863Z,9.10
2022-11-20T05:28:28.611Z,7.57
2022-11-20T05:30:55.919Z,8.18
2022-11-20T05:33:23.229Z,7.40
2022-11-20T05:35:50.437Z,5.55
2022-11-20T05:38:17.608Z,6.97
2022-11-20T05:40:44.812Z,7.50
2022-11-20T05:43:11.984Z,5.70
2022-11-20T05:45:39.984Z,5.72
2022-11-20T05:48:07.158Z,7.70
2022-11-20T05:50:34.318Z,6.60
2022-11-20T05:53:01.550Z,7.75
2022-11-20T05:55:28.824Z,5.55
2022-11-20T05:57:56.171Z,8.18
2022-11-20T06:00:23.480Z,6.90
2022-11-20T06:02:50.732Z,6.15
2022-11-20T06:05:17.960Z,7.10
2022-11-20T06:07:45.130Z,6.53
2022-11-20T06:10:12.428Z,5.07
2022-11-20T06:12:39.614Z,5.57
2022-11-20T06:15:07.353Z,5.72
2022-11-20T06:17:34.562Z,4.38
2022-11-20T06:20:01.996Z,7.68
2022-11-20T06:22:29.187Z,5.75
2022-11-20T06:24:56.374Z,5.85
2022-11-20T06:27:23.546Z,4.18
2022-11-20T06:29:50.738Z,5.78
2022-11-20T06:32:17.897Z,7.38
2022-11-20T06:34:45.063Z,4.10
2022-11-20T06:37:12.230Z,3.78
2022-11-20T06:39:39.437Z,5.68
2022-11-20T06:42:06.623Z,5.45
2022-11-20T06:44:33.792Z,3.60
2022-11-20T06:47:00.966Z,6.55
2022-11-20T06:49:28.178Z,4.50
2022-11-20T06:51:55.358Z,5.63
2022-11-20T06:54:22.519Z,4.90
2022-11-20T06:56:49.762Z,5.47
2022-11-20T06:59:16.935Z,4.15
2022-11-20T07:01:44.193Z,3.92
2022-11-20T07:04:11.364Z,3.88
2022-11-20T07:06:38.591Z,4.10
2022-11-20T07:09:11.374Z,8.10
2022-11-20T07:11:39.946Z,6.85
2022-11-20T07:14:07.141Z,3.22
2022-11-20T07:16:34.393Z,3.80
2022-11-20T07:19:01.613Z,3.53
2022-11-20T07:21:28.814Z,4.80
2022-11-20T07:23:56.014Z,2.78
2022-11-20T07:26:23.277Z,5.07
2022-11-20T07:28:50.476Z,4.18
2022-11-20T07:31:19.727Z,5.05
2022-11-20T07:33:47.515Z,6.43
2022-11-20T07:36:14.671Z,3.53
2022-11-20T07:38:41.905Z,6.10
2022-11-20T07:41:09.057Z,7.00
2022-11-20T07:43:41.068Z,7.75
2022-11-20T07:46:08.756Z,6.72
2022-11-20T07:48:35.919Z,5.78
2022-11-20T07:51:03.103Z,9.05
2022-11-20T07:53:30.293Z,6.38
2022-11-20T07:56:01.553Z,6.45
2022-11-20T07:58:30.211Z,6.35
2022-11-20T08:00:57.532Z,7.82
2022-11-20T08:03:25.799Z,8.15
2022-11-20T08:05:53.429Z,6.63
2022-11-20T08:08:21.109Z,13.88
2022-11-20T08:10:48.272Z,7.00
2022-11-20T08:13:33.893Z,6.50
2022-11-20T08:16:01.049Z,7.38
2022-11-20T08:18:32.640Z,6.90
2022-11-20T08:21:04.618Z,6.88
2022-11-20T08:23:31.915Z,5.75
2022-11-20T08:25:59.096Z,5.30
2022-11-20T08:28:26.290Z,5.75
2022-11-20T08:30:59.353Z,8.25
2022-11-20T08:33:26.589Z,5.45
2022-11-20T08:35:53.768Z,6.32
2022-11-20T08:38:20.922Z,4.45
2022-11-20T08:41:08.069Z,4.93
2022-11-20T08:43:35.324Z,5.22
2022-11-20T08:46:02.535Z,4.85
2022-11-20T08:48:29.719Z,6.60
2022-11-20T08:50:59.878Z,6.03
2022-11-20T08:53:27.920Z,5.20
2022-11-20T08:55:55.089Z,3.50
2022-11-20T08:58:22.405Z,4.63
2022-11-20T09:00:49.666Z,6.70
2022-11-20T09:03:16.905Z,4.13
2022-11-20T09:05:44.058Z,5.00
2022-11-20T09:08:11.238Z,4.05
2022-11-20T09:10:40.613Z,3.90
2022-11-20T09:13:07.905Z,3.90
2022-11-20T09:15:35.341Z,5.88
2022-11-20T09:18:03.470Z,4.90
2022-11-20T09:20:30.848Z,7.38
2022-11-20T09:22:58.537Z,4.18
2022-11-20T09:25:25.956Z,6.07
2022-11-20T09:27:57.336Z,2.70
2022-11-20T09:30:24.606Z,4.05
2022-11-20T09:32:52.196Z,3.25
2022-11-20T09:35:19.417Z,4.45
2022-11-20T09:37:46.622Z,4.35
2022-11-20T09:40:24.768Z,6.30
2022-11-20T09:43:14.102Z,3.50
2022-11-20T09:46:03.174Z,4.93
2022-11-20T09:48:48.941Z,5.32
2022-11-20T09:51:20.410Z,4.00
2022-11-20T09:54:02.636Z,5.30
2022-11-20T09:56:29.846Z,2.92
2022-11-20T09:59:00.105Z,3.10
2022-11-20T10:01:28.183Z,2.83
2022-11-20T10:04:14.743Z,2.80
2022-11-20T10:07:30.259Z,3.00
2022-11-20T10:09:55.230Z,3.50
2022-11-20T10:12:47.893Z,3.47
2022-11-20T10:15:39.619Z,3.10
2022-11-20T10:18:32.360Z,4.53
2022-11-20T10:21:23.236Z,3.10
2022-11-20T10:24:12.254Z,3.05
2022-11-20T10:26:57.829Z,2.30
2022-11-20T10:29:34.746Z,2.60
2022-11-20T10:32:04.296Z,3.60
2022-11-20T10:34:55.860Z,3.17
2022-11-20T10:37:26.885Z,4.07
2022-11-20T10:40:01.754Z,2.30
2022-11-20T10:42:44.972Z,3.00
2022-11-20T10:45:27.902Z,1.92
2022-11-20T10:47:57.367Z,2.75
2022-11-20T10:50:24.592Z,3.60
2022-11-20T10:53:01.521Z,2.35
2022-11-20T10:55:41.562Z,2.97
2022-11-20T10:58:27.230Z,2.13
2022-11-20T11:01:13.110Z,2.67
2022-11-20T11:03:40.410Z,2.92
2022-11-20T11:06:45.020Z,2.45
2022-11-20T11:09:17.377Z,5.30
2022-11-20T11:11:44.537Z,3.58
2022-11-20T11:14:14.313Z,6.32
2022-11-20T11:16:53.934Z,3.97
2022-11-20T11:19:21.513Z,1.55
2022-11-20T11:21:58.090Z,3.10
2022-11-20T11:24:43.239Z,4.60
2022-11-20T11:27:18.029Z,4.22
2022-11-20T11:32:18.921Z,2.63
2022-11-20T11:34:46.096Z,4.70
2022-11-20T11:37:16.537Z,5.57
2022-11-20T11:39:43.738Z,3.05
2022-11-20T11:42:13.950Z,3.08
2022-11-20T11:45:03.576Z,4.30
2022-11-20T11:47:32.700Z,4.18
2022-11-20T11:50:17.218Z,3.35
2022-11-20T11:53:02.509Z,2.67
2022-11-20T11:55:34.856Z,5.03
2022-11-20T11:58:24.631Z,2.55
2022-11-20T12:00:59.267Z,2.65
2022-11-20T12:03:38.366Z,2.75
2022-11-20T12:06:13.750Z,2.85
2022-11-20T12:09:06.393Z,6.18
2022-11-20T12:11:45.568Z,2.67
2022-11-20T12:14:29.417Z,4.85
2022-11-20T12:16:58.515Z,1.88
2022-11-20T12:19:25.960Z,2.70
2022-11-20T12:22:22.556Z,2.28
2022-11-20T12:25:10.346Z,3.80
2022-11-20T12:27:53.054Z,2.75
2022-11-20T12:30:21.150Z,5.05
2022-11-20T12:33:42.619Z,3.78
2022-11-20T12:36:36.258Z,2.70
2022-11-20T12:39:33.386Z,1.77
2022-11-20T12:42:32.152Z,2.03
2022-11-20T12:45:15.629Z,4.43
2022-11-20T12:47:48.934Z,3.15
2022-11-20T12:50:19.045Z,8.77
2022-11-20T12:52:52.893Z,2.53
2022-11-20T12:55:25.965Z,3.00
2022-11-20T12:58:11.744Z,2.83
2022-11-20T13:00:40.605Z,5.80
2022-11-20T13:03:37.121Z,2.15
2022-11-20T13:06:16.207Z,3.03
2022-11-20T13:08:46.519Z,3.53
2022-11-20T13:11:32.487Z,2.78
2022-11-20T13:13:59.673Z,3.20
2022-11-20T13:16:31.175Z,2.75
2022-11-20T13:18:58.322Z,2.75
2022-11-20T13:21:37.561Z,4.40
2022-11-20T13:24:09.048Z,4.18
2022-11-20T13:26:36.265Z,6.68
2022-11-20T13:29:19.776Z,4.75
2022-11-20T13:31:47.823Z,4.30
2022-11-20T13:34:26.766Z,3.97
2022-11-20T13:36:58.827Z,5.63
2022-11-20T13:39:34.089Z,3.13
2022-11-20T13:42:03.093Z,4.38
2022-11-20T13:44:40.205Z,4.03
2022-11-20T13:47:27.326Z,5.38
2022-11-20T13:49:55.611Z,3.08
2022-11-20T13:52:53.154Z,4.60
2022-11-20T13:55:43.802Z,5.25
2022-11-20T13:58:33.444Z,3.20
2022-11-20T14:01:33.176Z,8.48
2022-11-20T14:04:07.590Z,3.78
2022-11-20T14:06:45.888Z,3.55
2022-11-20T14:09:14.653Z,4.15
2022-11-20T14:11:48.812Z,4.75
2022-11-20T14:14:22.022Z,6.85
2022-11-20T14:16:49.599Z,3.20
2022-11-20T14:19:38.103Z,3.30
2022-11-20T14:22:10.673Z,7.15
2022-11-20T14:24:38.022Z,5.22
2022-11-20T14:27:05.201Z,3.85
2022-11-20T14:29:38.701Z,2.72
2022-11-20T14:32:05.953Z,6.18
2022-11-20T14:34:36.548Z,4.40
2022-11-20T14:37:05.473Z,3.35
2022-11-20T14:39:34.406Z,2.75
2022-11-20T14:42:01.700Z,3.85
2022-11-20T14:44:32.967Z,1.98
2022-11-20T14:47:01.313Z,2.50
2022-11-20T14:49:29.591Z,1.88
2022-11-20T14:52:10.682Z,1.70
2022-11-20T14:54:47.680Z,2.78
2022-11-20T14:57:26.949Z,4.93
2022-11-20T15:00:13.665Z,2.05
2022-11-20T15:02:46.525Z,4.10
2022-11-20T15:05:13.947Z,1.90
2022-11-20T15:07:46.448Z,1.70
2022-11-20T15:10:19.625Z,3.58
2022-11-20T15:12:57.853Z,2.13
2022-11-20T15:15:50.294Z,1.75
2022-11-20T15:18:30.423Z,2.00
2022-11-20T15:20:58.466Z,2.13
2022-11-20T15:23:25.670Z,7.28
2022-11-20T15:25:52.858Z,2.85
2022-11-20T15:28:24.470Z,3.80
2022-11-20T15:30:51.673Z,4.30
2022-11-20T15:33:18.985Z,2.58
2022-11-20T15:35:46.243Z,2.33
2022-11-20T15:38:13.636Z,2.63
2022-11-20T15:40:40.858Z,4.10
2022-11-20T15:43:13.266Z,3.15
2022-11-20T15:45:44.823Z,6.38
2022-11-20T15:48:26.070Z,5.38
2022-11-20T15:51:04.924Z,3.40
2022-11-20T15:53:32.106Z,2.78
2022-11-20T15:55:59.380Z,3.55
2022-11-20T15:58:27.525Z,2.90
2022-11-20T16:00:55.063Z,4.38
2022-11-20T16:03:22.507Z,3.42
2022-11-20T16:05:49.667Z,2.55
2022-11-20T16:08:16.861Z,4.68
2022-11-20T16:10:44.151Z,5.93
2022-11-20T16:13:34.311Z,5.50
2022-11-20T16:16:05.844Z,5.45
2022-11-20T16:18:33.197Z,3.28
2022-11-20T16:21:00.379Z,8.63
2022-11-20T16:23:27.621Z,6.15
2022-11-20T16:25:54.828Z,5.32
2022-11-20T16:28:22.080Z,6.53
2022-11-20T16:30:49.300Z,9.43
2022-11-20T16:33:17.900Z,9.98
2022-11-20T16:35:45.099Z,9.55
2022-11-20T16:38:12.288Z,10.23
2022-11-20T16:40:39.524Z,6.47
2022-11-20T16:43:11.484Z,6.25
2022-11-20T16:45:42.930Z,6.90
2022-11-20T16:48:16.454Z,5.53
2022-11-20T16:50:47.277Z,10.52
2022-11-20T16:53:14.477Z,8.68
2022-11-20T16:55:41.754Z,7.85
2022-11-20T16:58:09.349Z,13.05
2022-11-20T17:00:37.954Z,6.80
2022-11-20T17:03:05.826Z,5.57
2022-11-20T17:05:33.179Z,6.25
2022-11-20T17:08:00.638Z,7.40
2022-11-20T17:10:27.825Z,6.97
2022-11-20T17:12:55.019Z,9.85
2022-11-20T17:15:22.177Z,10.75
2022-11-20T17:17:49.332Z,9.85
2022-11-20T17:20:16.534Z,10.38
2022-11-20T17:22:43.753Z,7.30
2022-11-20T17:25:10.925Z,9.23
2022-11-20T17:27:38.131Z,6.90
2022-11-20T17:30:05.768Z,4.97
2022-11-20T17:32:32.945Z,7.97
2022-11-20T17:35:00.141Z,7.88
2022-11-20T17:37:27.339Z,7.20
2022-11-20T17:39:54.647Z,5.93
2022-11-20T17:42:27.685Z,5.18
2022-11-20T17:44:55.090Z,7.53
2022-11-20T17:47:22.247Z,10.05
2022-11-20T17:49:49.525Z,6.53
2022-11-20T17:52:16.688Z,8.10
2022-11-20T17:54:43.914Z,9.30
2022-11-20T17:57:29.366Z,11.55
2022-11-20T17:59:56.537Z,10.95
2022-11-20T18:02:23.744Z,10.32
2022-11-20T18:04:51.100Z,12.55
2022-11-20T18:07:18.407Z,9.82
2022-11-20T18:09:45.581Z,11.05
2022-11-20T18:12:12.766Z,12.15
2022-11-20T18:14:39.972Z,12.50
2022-11-20T18:17:09.405Z,7.68
2022-11-20T18:19:42.613Z,9.07
2022-11-20T18:22:15.753Z,8.25
2022-11-20T18:24:43.222Z,8.52
2022-11-20T18:27:15.175Z,10.73
2022-11-20T18:29:42.465Z,12.15
2022-11-20T18:32:09.637Z,9.18
2022-11-20T18:34:36.810Z,8.57
2022-11-20T18:37:04.010Z,14.45
2022-11-20T18:39:31.219Z,9.68
2022-11-20T18:42:16.773Z,11.93
2022-11-20T18:44:56.287Z,10.13
2022-11-20T18:47:29.337Z,10.15
2022-11-20T18:49:57.896Z,11.73
2022-11-20T18:52:27.361Z,13.13
2022-11-20T18:54:54.620Z,13.63
2022-11-20T18:57:23.545Z,14.73
2022-11-20T18:59:51.086Z,16.25
2022-11-20T19:02:19.004Z,13.43
2022-11-20T19:04:46.483Z,14.20
2022-11-20T19:07:14.080Z,13.15
2022-11-20T19:09:41.890Z,13.27
2022-11-20T19:12:09.633Z,8.65
2022-11-20T19:14:36.863Z,9.75
2022-11-20T19:17:05.425Z,11.73
2022-11-20T19:19:35.861Z,13.52
2022-11-20T19:22:04.033Z,9.57
2022-11-20T19:24:31.204Z,9.30
2022-11-20T19:26:58.462Z,9.77
2022-11-20T19:29:26.986Z,7.82
2022-11-20T19:31:54.343Z,8.15
2022-11-20T19:34:22.206Z,9.85
2022-11-20T19:36:49.379Z,11.07
2022-11-20T19:39:16.976Z,11.10
2022-11-20T19:41:44.251Z,10.32
2022-11-20T19:44:13.952Z,8.57
2022-11-20T19:46:41.471Z,9.55
2022-11-20T19:49:10.318Z,6.53
2022-11-20T19:51:38.369Z,6.30
2022-11-20T19:54:05.795Z,8.45
2022-11-20T19:56:33.337Z,10.75
2022-11-20T19:59:00.769Z,10.27
2022-11-20T20:01:29.495Z,8.98
2022-11-20T20:04:01.417Z,7.40
2022-11-20T20:06:28.811Z,8.45
2022-11-20T20:09:07.611Z,8.45
2022-11-20T20:11:35.248Z,8.45
2022-11-20T20:14:06.455Z,6.80
2022-11-20T20:16:34.382Z,4.78
2022-11-20T20:19:02.791Z,4.20
2022-11-20T20:21:30.732Z,6.68
2022-11-20T20:23:58.402Z,5.38
2022-11-20T20:26:26.542Z,5.13
2022-11-20T20:28:53.800Z,3.30
2022-11-20T20:31:22.981Z,4.15
2022-11-20T20:33:50.314Z,5.47
2022-11-20T20:36:18.636Z,4.35
2022-11-20T20:38:46.503Z,3.80
2022-11-20T20:41:14.449Z,3.20
2022-11-20T20:44:00.095Z,4.57
2022-11-20T20:46:27.394Z,5.70
2022-11-20T20:48:55.121Z,6.45
2022-11-20T20:51:22.778Z,5.15
2022-11-20T20:53:50.278Z,4.72
2022-11-20T20:56:17.698Z,4.88
2022-11-20T20:58:44.975Z,10.48
2022-11-20T21:01:13.958Z,5.15
2022-11-20T21:03:41.359Z,4.85
2022-11-20T21:06:09.805Z,3.10
2022-11-20T21:08:40.346Z,3.38
2022-11-20T21:11:12.756Z,4.18
2022-11-20T21:13:40.433Z,3.90
2022-11-20T21:16:07.631Z,3.80
2022-11-20T21:18:34.999Z,2.72
2022-11-20T21:21:25.478Z,4.18
2022-11-20T21:23:55.846Z,6.25
2022-11-20T21:26:23.030Z,4.45
2022-11-20T21:28:50.252Z,5.35
2022-11-20T21:31:21.803Z,3.10
2022-11-20T21:33:50.038Z,3.72
2022-11-20T21:36:18.806Z,4.18
2022-11-20T21:38:47.550Z,2.55
2022-11-20T21:41:15.228Z,2.40
2022-11-20T21:43:45.674Z,2.40
2022-11-20T21:46:14.465Z,2.60
2022-11-20T21:48:42.696Z,3.83
2022-11-20T21:51:11.394Z,4.88
2022-11-20T21:53:38.907Z,3.45
2022-11-20T21:56:07.027Z,5.25
2022-11-20T21:58:34.891Z,3.63
2022-11-20T22:01:18.668Z,3.58
2022-11-20T22:03:57.241Z,3.15
2022-11-20T22:06:25.474Z,4.03
2022-11-20T22:08:52.805Z,3.92
2022-11-20T22:11:20.914Z,4.13
2022-11-20T22:14:07.015Z,4.05
2022-11-20T22:16:35.049Z,6.00
2022-11-20T22:19:02.237Z,8.05
2022-11-20T22:21:29.845Z,21.63
2022-11-20T22:23:57.202Z,10.52
2022-11-20T22:26:29.033Z,9.43
2022-11-20T22:28:57.212Z,6.38
2022-11-20T22:31:25.457Z,4.35
2022-11-20T22:33:52.791Z,4.95
2022-11-20T22:36:21.747Z,8.00
2022-11-20T22:38:48.937Z,6.45
2022-11-20T22:41:20.449Z,5.32
2022-11-20T22:43:47.859Z,9.27
2022-11-20T22:46:18.186Z,4.35
2022-11-20T22:48:52.106Z,2.65
2022-11-20T22:51:20.798Z,5.20
2022-11-20T22:53:48.166Z,3.90
2022-11-20T22:56:15.662Z,2.78
2022-11-20T22:58:44.453Z,3.78
2022-11-20T23:01:15.417Z,2.38
2022-11-20T23:03:44.817Z,2.50
2022-11-20T23:06:12.310Z,4.70
2022-11-20T23:08:39.958Z,2.28
2022-11-20T23:11:14.681Z,2.30
2022-11-20T23:16:10.813Z,2.40
2022-11-20T23:18:38.081Z,2.30
2022-11-20T23:21:13.493Z,1.77
2022-11-20T23:23:40.734Z,1.80
2022-11-20T23:26:09.436Z,2.25
2022-11-20T23:28:36.706Z,1.92
2022-11-20T23:31:04.069Z,1.50
2022-11-20T23:33:31.265Z,1.67
2022-11-20T23:35:58.446Z,1.48
2022-11-20T23:38:25.628Z,1.38
2022-11-20T23:40:52.947Z,1.45
2022-11-20T23:43:21.094Z,1.10
2022-11-20T23:45:52.912Z,2.05
2022-11-20T23:48:20.596Z,1.80
2022-11-20T23:50:48.019Z,1.38
2022-11-20T23:53:15.358Z,1.30
2022-11-20T23:55:59.206Z,1.55
2022-11-20T23:58:30.115Z,2.65
